createdAt,value
2023-06-10T00:00:16.012Z,101891.56
2023-06-10T00:02:45.663Z,101893.84
2023-06-10T00:05:17.625Z,101899.88
2023-06-10T00:07:47.691Z,101905.34
2023-06-10T00:10:16.793Z,101902.84
2023-06-10T00:12:45.265Z,101906.00
2023-06-10T00:15:13.947Z,101903.91
2023-06-10T00:17:42.504Z,101912.63
2023-06-10T00:20:13.557Z,101911.47
2023-06-10T00:22:47.096Z,101921.16
2023-06-10T00:25:16.142Z,101916.06
2023-06-10T00:27:44.775Z,101919.25
2023-06-10T00:30:14.082Z,101912.59
2023-06-10T00:32:42.738Z,101916.16
2023-06-10T00:35:11.866Z,101919.31
2023-06-10T00:37:40.653Z,101917.78
2023-06-10T00:40:12.173Z,101917.59
2023-06-10T00:42:40.786Z,101917.59
2023-06-10T00:45:10.128Z,101927.94
2023-06-10T00:47:39.136Z,101925.81
2023-06-10T00:50:09.099Z,101927.63
2023-06-10T00:52:38.342Z,101930.44
2023-06-10T00:55:09.332Z,101940.66
2023-06-10T00:57:40.273Z,101930.41
2023-06-10T01:00:11.655Z,101941.00
2023-06-10T01:02:40.548Z,101936.31
2023-06-10T01:05:10.711Z,101938.94
2023-06-10T01:07:46.802Z,101944.16
2023-06-10T01:10:22.326Z,101952.34
2023-06-10T01:13:04.100Z,101939.06
2023-06-10T01:15:33.413Z,101947.53
2023-06-10T01:18:03.553Z,101952.09
2023-06-10T01:20:35.719Z,101945.97
2023-06-10T01:23:05.976Z,101957.72
2023-06-10T01:25:37.577Z,101963.63
2023-06-10T01:28:12.757Z,101970.34
2023-06-10T01:30:48.705Z,101973.97
2023-06-10T01:33:21.166Z,101976.03
2023-06-10T01:35:50.601Z,101981.59
2023-06-10T01:38:23.151Z,101977.78
2023-06-10T01:40:53.896Z,101983.91
2023-06-10T01:43:23.200Z,101978.31
2023-06-10T01:45:51.671Z,101982.47
2023-06-10T01:48:20.176Z,101978.63
2023-06-10T01:50:48.832Z,101983.06
2023-06-10T01:53:17.395Z,101981.09
2023-06-10T01:55:47.568Z,101990.09
2023-06-10T01:58:16.062Z,101991.41
2023-06-10T02:00:45.105Z,101999.28
2023-06-10T02:03:13.856Z,101992.34
2023-06-10T02:05:42.453Z,101999.25
2023-06-10T02:08:10.972Z,102000.47
2023-06-10T02:10:39.554Z,101998.38
2023-06-10T02:13:09.776Z,102002.25
2023-06-10T02:15:38.270Z,101997.22
2023-06-10T02:18:07.321Z,102001.66
2023-06-10T02:20:35.887Z,102001.91
2023-06-10T02:23:05.360Z,102004.25
2023-06-10T02:25:34.065Z,102009.03
2023-06-10T02:28:04.637Z,102015.16
2023-06-10T02:30:34.910Z,102012.56
2023-06-10T02:33:03.775Z,102012.13
2023-06-10T02:35:32.685Z,102010.19
2023-06-10T02:38:01.239Z,102022.56
2023-06-10T02:40:30.184Z,102016.63
2023-06-10T02:42:58.809Z,102019.25
2023-06-10T02:45:27.745Z,102020.13
2023-06-10T02:47:59.023Z,102030.63
2023-06-10T02:50:27.856Z,102034.06
2023-06-10T02:53:16.631Z,102033.28
2023-06-10T02:55:50.537Z,102040.31
2023-06-10T02:58:22.350Z,102038.78
2023-06-10T03:00:51.666Z,102036.19
2023-06-10T03:03:23.696Z,102042.22
2023-06-10T03:06:02.946Z,102044.06
2023-06-10T03:08:32.469Z,102044.72
2023-06-10T03:11:05.116Z,102041.59
2023-06-10T03:13:35.450Z,102042.78
2023-06-10T03:16:05.996Z,102047.78
2023-06-10T03:18:39.242Z,102046.09
2023-06-10T03:21:10.068Z,102054.75
2023-06-10T03:23:39.220Z,102048.63
2023-06-10T03:26:08.950Z,102054.41
2023-06-10T03:28:40.427Z,102052.03
2023-06-10T03:31:10.610Z,102049.88
2023-06-10T03:33:41.593Z,102058.84
2023-06-10T03:36:10.256Z,102056.53
2023-06-10T03:38:39.431Z,102054.59
2023-06-10T03:41:09.945Z,102057.06
2023-06-10T03:43:41.971Z,102060.53
2023-06-10T03:46:11.628Z,102064.13
2023-06-10T03:48:42.873Z,102054.91
2023-06-10T03:51:11.927Z,102058.91
2023-06-10T03:53:40.716Z,102062.13
2023-06-10T03:56:09.476Z,102068.81
2023-06-10T03:58:38.175Z,102066.88
2023-06-10T04:01:08.586Z,102075.50
2023-06-10T04:03:38.183Z,102068.56
2023-06-10T04:06:08.400Z,102060.69
2023-06-10T04:08:37.333Z,102072.53
2023-06-10T04:11:06.132Z,102068.03
2023-06-10T04:13:34.674Z,102071.00
2023-06-10T04:16:04.157Z,102073.78
2023-06-10T04:18:32.819Z,102077.22
2023-06-10T04:21:08.070Z,102075.34
2023-06-10T04:23:38.123Z,102080.03
2023-06-10T04:26:07.528Z,102080.13
2023-06-10T04:28:37.557Z,102084.59
2023-06-10T04:31:06.239Z,102083.38
2023-06-10T04:33:35.048Z,102085.59
2023-06-10T04:36:08.080Z,102077.44
2023-06-10T04:38:39.830Z,102084.47
2023-06-10T04:41:08.449Z,102082.41
2023-06-10T04:43:38.591Z,102083.41
2023-06-10T04:46:09.090Z,102088.22
2023-06-10T04:48:40.226Z,102087.34
2023-06-10T04:51:08.905Z,102092.50
2023-06-10T04:53:37.749Z,102092.50
2023-06-10T04:56:09.167Z,102097.84
2023-06-10T04:58:37.790Z,102092.78
2023-06-10T05:01:06.323Z,102092.44
2023-06-10T05:03:35.132Z,102093.66
2023-06-10T05:06:03.824Z,102095.97
2023-06-10T05:08:32.544Z,102093.16
2023-06-10T05:11:01.102Z,102098.06
2023-06-10T05:13:31.343Z,102104.97
2023-06-10T05:15:59.969Z,102107.31
2023-06-10T05:18:28.562Z,102112.06
2023-06-10T05:20:57.243Z,102115.66
2023-06-10T05:23:25.982Z,102115.16
2023-06-10T05:25:54.645Z,102110.16
2023-06-10T05:28:23.263Z,102115.72
2023-06-10T05:30:53.380Z,102114.03
2023-06-10T05:33:22.128Z,102118.53
2023-06-10T05:35:50.751Z,102110.75
2023-06-10T05:38:19.440Z,102115.06
2023-06-10T05:40:48.722Z,102118.41
2023-06-10T05:43:18.010Z,102118.00
2023-06-10T05:45:46.676Z,102118.28
2023-06-10T05:48:16.777Z,102117.09
2023-06-10T05:50:49.533Z,102108.09
2023-06-10T05:53:18.867Z,102121.19
2023-06-10T05:55:48.246Z,102120.06
2023-06-10T05:58:17.348Z,102121.09
2023-06-10T06:00:45.954Z,102119.47
2023-06-10T06:03:16.479Z,102120.38
2023-06-10T06:05:45.220Z,102112.25
2023-06-10T06:08:14.674Z,102113.44
2023-06-10T06:10:43.467Z,102111.56
2023-06-10T06:13:12.249Z,102110.56
2023-06-10T06:15:40.848Z,102117.31
2023-06-10T06:18:09.528Z,102123.94
2023-06-10T06:20:39.626Z,102124.41
2023-06-10T06:23:10.005Z,102112.69
2023-06-10T06:25:40.411Z,102125.25
2023-06-10T06:28:10.224Z,102123.56
2023-06-10T06:30:38.897Z,102129.44
2023-06-10T06:33:07.604Z,102128.19
2023-06-10T06:35:36.433Z,102122.63
2023-06-10T06:38:06.852Z,102130.84
2023-06-10T06:40:35.937Z,102139.16
2023-06-10T06:43:04.653Z,102130.88
2023-06-10T06:46:05.689Z,102135.34
2023-06-10T06:48:34.419Z,102137.34
2023-06-10T06:51:03.045Z,102148.19
2023-06-10T06:53:52.439Z,102135.88
2023-06-10T06:56:21.073Z,102152.03
2023-06-10T06:58:49.692Z,102139.56
2023-06-10T07:01:18.600Z,102145.25
2023-06-10T07:03:47.189Z,102142.63
2023-06-10T07:06:15.892Z,102145.53
2023-06-10T07:08:44.388Z,102147.06
2023-06-10T07:11:14.587Z,102157.75
2023-06-10T07:13:44.115Z,102152.53
2023-06-10T07:16:12.797Z,102143.47
2023-06-10T07:18:41.535Z,102148.41
2023-06-10T07:21:10.041Z,102147.16
2023-06-10T07:23:38.751Z,102152.69
2023-06-10T07:26:07.257Z,102155.28
2023-06-10T07:28:37.269Z,102157.59
2023-06-10T07:31:05.928Z,102158.03
2023-06-10T07:33:50.194Z,102157.00
2023-06-10T07:36:19.030Z,102150.41
2023-06-10T07:38:47.682Z,102159.88
2023-06-10T07:41:19.324Z,102161.16
2023-06-10T07:43:49.567Z,102155.28
2023-06-10T07:46:18.173Z,102143.22
2023-06-10T07:48:46.749Z,102145.03
2023-06-10T07:51:15.370Z,102138.34
2023-06-10T07:53:44.261Z,102142.47
2023-06-10T07:56:12.867Z,102143.94
2023-06-10T07:58:41.711Z,102145.44
2023-06-10T08:01:11.671Z,102145.84
2023-06-10T08:03:40.364Z,102151.06
2023-06-10T08:06:09.018Z,102148.44
2023-06-10T08:08:42.578Z,102151.38
2023-06-10T08:11:11.430Z,102154.97
2023-06-10T08:13:40.974Z,102152.53
2023-06-10T08:16:09.834Z,102145.38
2023-06-10T08:18:40.110Z,102149.53
2023-06-10T08:21:08.771Z,102163.56
2023-06-10T08:23:37.271Z,102164.31
2023-06-10T08:26:06.039Z,102164.19
2023-06-10T08:28:34.501Z,102169.03
2023-06-10T08:31:03.229Z,102156.72
2023-06-10T08:33:31.788Z,102155.28
2023-06-10T08:36:01.785Z,102158.31
2023-06-10T08:38:30.524Z,102157.72
2023-06-10T08:41:02.790Z,102158.84
2023-06-10T08:43:36.517Z,102155.28
2023-06-10T08:46:06.020Z,102155.84
2023-06-10T08:48:38.523Z,102161.88
2023-06-10T08:51:09.049Z,102160.13
2023-06-10T08:53:40.289Z,102159.59
2023-06-10T08:56:09.226Z,102164.44
2023-06-10T08:58:42.997Z,102155.72
2023-06-10T09:01:12.264Z,102154.31
2023-06-10T09:03:41.614Z,102149.81
2023-06-10T09:06:12.469Z,102152.44
2023-06-10T09:08:42.151Z,102152.28
2023-06-10T09:11:10.815Z,102150.25
2023-06-10T09:13:39.531Z,102156.47
2023-06-10T09:16:08.144Z,102145.91
2023-06-10T09:18:37.653Z,102144.72
2023-06-10T09:21:06.456Z,102151.66
2023-06-10T09:23:37.922Z,102145.13
2023-06-10T09:26:11.607Z,102148.47
2023-06-10T09:28:41.587Z,102149.34
2023-06-10T09:31:10.593Z,102153.25
2023-06-10T09:33:41.053Z,102158.75
2023-06-10T09:36:11.309Z,102148.03
2023-06-10T09:38:43.296Z,102145.88
2023-06-10T09:41:13.196Z,102148.81
2023-06-10T09:43:43.486Z,102152.00
2023-06-10T09:46:18.384Z,102143.06
2023-06-10T09:48:49.094Z,102147.34
2023-06-10T09:51:19.222Z,102138.47
2023-06-10T09:53:53.357Z,102137.13
2023-06-10T09:56:24.442Z,102139.25
2023-06-10T09:58:56.137Z,102135.81
2023-06-10T10:01:25.496Z,102119.25
2023-06-10T10:03:54.466Z,102131.25
2023-06-10T10:06:23.628Z,102128.41
2023-06-10T10:08:54.424Z,102136.81
2023-06-10T10:11:24.528Z,102133.94
2023-06-10T10:13:53.952Z,102130.28
2023-06-10T10:16:23.888Z,102141.63
2023-06-10T10:18:57.490Z,102134.13
2023-06-10T10:21:29.562Z,102138.22
2023-06-10T10:24:09.128Z,102130.81
2023-06-10T10:26:40.594Z,102122.53
2023-06-10T10:29:13.432Z,102128.97
2023-06-10T10:31:45.355Z,102127.16
2023-06-10T10:34:18.995Z,102121.34
2023-06-10T10:36:49.431Z,102130.34
2023-06-10T10:39:20.712Z,102131.91
2023-06-10T10:41:50.372Z,102123.22
2023-06-10T10:44:19.350Z,102125.13
2023-06-10T10:46:52.225Z,102122.41
2023-06-10T10:49:21.811Z,102116.44
2023-06-10T10:52:06.654Z,102119.94
2023-06-10T10:54:38.988Z,102122.63
2023-06-10T10:57:15.846Z,102123.38
2023-06-10T11:00:06.213Z,102112.47
2023-06-10T11:02:37.195Z,102111.44
2023-06-10T11:05:07.055Z,102104.25
2023-06-10T11:07:37.606Z,102110.78
2023-06-10T11:10:10.031Z,102108.34
2023-06-10T11:12:55.507Z,102111.22
2023-06-10T11:15:26.615Z,102108.88
2023-06-10T11:18:11.930Z,102109.75
2023-06-10T11:21:01.237Z,102111.75
2023-06-10T11:23:41.972Z,102106.84
2023-06-10T11:26:20.923Z,102108.47
2023-06-10T11:29:13.274Z,102100.78
2023-06-10T11:31:44.758Z,102110.50
2023-06-10T11:34:16.010Z,102096.69
2023-06-10T11:36:47.027Z,102105.25
2023-06-10T11:39:15.737Z,102101.47
2023-06-10T11:41:48.258Z,102100.31
2023-06-10T11:44:19.898Z,102103.25
2023-06-10T11:46:52.878Z,102095.19
2023-06-10T11:49:23.208Z,102088.88
2023-06-10T11:51:53.124Z,102085.47
2023-06-10T11:54:23.216Z,102089.41
2023-06-10T11:56:59.585Z,102089.53
2023-06-10T11:59:30.181Z,102097.41
2023-06-10T12:01:59.014Z,102099.75
2023-06-10T12:04:27.655Z,102101.16
2023-06-10T12:06:56.830Z,102096.72
2023-06-10T12:09:27.785Z,102089.66
2023-06-10T12:12:01.718Z,102098.72
2023-06-10T12:14:57.079Z,102083.31
2023-06-10T12:17:38.727Z,102092.56
2023-06-10T12:20:09.585Z,102089.81
2023-06-10T12:22:42.376Z,102086.56
2023-06-10T12:25:13.437Z,102081.22
2023-06-10T12:27:53.694Z,102079.25
2023-06-10T12:30:23.069Z,102084.53
2023-06-10T12:32:51.875Z,102086.91
2023-06-10T12:35:22.593Z,102083.16
2023-06-10T12:37:58.438Z,102084.06
2023-06-10T12:40:31.038Z,102070.75
2023-06-10T12:43:01.935Z,102079.25
2023-06-10T12:45:31.175Z,102082.38
2023-06-10T12:48:10.721Z,102072.59
2023-06-10T12:50:40.789Z,102068.84
2023-06-10T12:53:09.927Z,102067.66
2023-06-10T12:55:38.701Z,102056.00
2023-06-10T12:58:08.832Z,102061.97
2023-06-10T13:00:37.520Z,102056.38
2023-06-10T13:03:08.012Z,102055.28
2023-06-10T13:05:38.742Z,102061.59
2023-06-10T13:08:08.516Z,102065.81
2023-06-10T13:10:37.222Z,102061.44
2023-06-10T13:13:07.193Z,102065.63
2023-06-10T13:15:41.552Z,102056.78
2023-06-10T13:18:12.434Z,102056.69
2023-06-10T13:20:41.696Z,102058.22
2023-06-10T13:23:10.339Z,102055.38
2023-06-10T13:25:38.970Z,102058.81
2023-06-10T13:28:07.877Z,102053.69
2023-06-10T13:30:40.962Z,102047.88
2023-06-10T13:33:09.601Z,102054.25
2023-06-10T13:35:38.076Z,102060.16
2023-06-10T13:38:06.706Z,102041.94
2023-06-10T13:40:35.279Z,102043.25
2023-06-10T13:43:03.945Z,102042.16
2023-06-10T13:45:32.528Z,102043.09
2023-06-10T13:48:02.962Z,102036.34
2023-06-10T13:50:31.551Z,102039.19
2023-06-10T13:53:02.669Z,102035.88
2023-06-10T13:55:33.022Z,102035.31
2023-06-10T13:58:01.661Z,102033.34
2023-06-10T14:00:30.993Z,102027.38
2023-06-10T14:02:59.577Z,102033.53
2023-06-10T14:05:31.901Z,102033.59
2023-06-10T14:08:00.903Z,102025.56
2023-06-10T14:10:29.371Z,102035.41
2023-06-10T14:12:58.022Z,102036.81
2023-06-10T14:15:26.552Z,102036.94
2023-06-10T14:17:55.188Z,102024.41
2023-06-10T14:20:24.716Z,102033.94
2023-06-10T14:22:54.790Z,102036.88
2023-06-10T14:25:23.369Z,102032.00
2023-06-10T14:27:52.023Z,102020.22
2023-06-10T14:30:20.834Z,102013.22
2023-06-10T14:32:49.486Z,102017.09
2023-06-10T14:35:18.247Z,102019.97
2023-06-10T14:37:46.810Z,102019.13
2023-06-10T14:40:16.841Z,102013.81
2023-06-10T14:42:45.402Z,102018.28
2023-06-10T14:45:13.943Z,102015.31
2023-06-10T14:47:42.559Z,102011.97
2023-06-10T14:50:12.064Z,102015.94
2023-06-10T14:52:41.332Z,102015.22
2023-06-10T14:55:10.663Z,102012.03
2023-06-10T14:57:40.872Z,102014.09
2023-06-10T15:00:11.214Z,102016.72
2023-06-10T15:02:39.813Z,102016.69
2023-06-10T15:05:09.224Z,102023.13
2023-06-10T15:07:38.010Z,102016.63
2023-06-10T15:10:07.772Z,102015.34
2023-06-10T15:12:36.475Z,102019.84
2023-06-10T15:15:07.566Z,102023.28
2023-06-10T15:17:36.378Z,102025.28
2023-06-10T15:20:05.292Z,102034.56
2023-06-10T15:22:36.233Z,102021.78
2023-06-10T15:25:17.365Z,102026.63
2023-06-10T15:27:54.535Z,102031.13
2023-06-10T15:30:24.544Z,102024.72
2023-06-10T15:32:53.308Z,102031.75
2023-06-10T15:35:21.915Z,102029.34
2023-06-10T15:37:50.604Z,102031.28
2023-06-10T15:40:19.113Z,102027.78
2023-06-10T15:42:47.771Z,102031.28
2023-06-10T15:45:16.504Z,102027.28
2023-06-10T15:47:46.666Z,102036.66
2023-06-10T15:50:15.299Z,102040.25
2023-06-10T15:52:43.875Z,102032.06
2023-06-10T15:55:12.733Z,102019.41
2023-06-10T15:57:41.526Z,102035.91
2023-06-10T16:00:11.449Z,102037.31
2023-06-10T16:02:41.640Z,102032.41
2023-06-10T16:05:12.113Z,102040.41
2023-06-10T16:07:42.033Z,102036.63
2023-06-10T16:10:11.197Z,102030.00
2023-06-10T16:12:39.837Z,102041.63
2023-06-10T16:15:11.337Z,102029.22
2023-06-10T16:17:40.549Z,102039.63
2023-06-10T16:20:12.093Z,102043.81
2023-06-10T16:22:40.802Z,102039.97
2023-06-10T16:25:10.605Z,102041.31
2023-06-10T16:27:39.495Z,102040.34
2023-06-10T16:30:10.720Z,102034.06
2023-06-10T16:32:39.475Z,102040.22
2023-06-10T16:35:08.907Z,102043.91
2023-06-10T16:37:39.336Z,102038.72
2023-06-10T16:40:08.998Z,102043.41
2023-06-10T16:42:37.795Z,102046.16
2023-06-10T16:45:07.660Z,102038.91
2023-06-10T16:47:36.481Z,102042.75
2023-06-10T16:50:05.560Z,102043.44
2023-06-10T16:52:34.201Z,102041.44
2023-06-10T16:55:04.308Z,102050.03
2023-06-10T16:57:32.976Z,102061.47
2023-06-10T17:00:01.502Z,102052.63
2023-06-10T17:02:30.157Z,102059.16
2023-06-10T17:04:58.801Z,102054.09
2023-06-10T17:07:27.573Z,102050.91
2023-06-10T17:09:56.848Z,102055.97
2023-06-10T17:12:27.078Z,102054.03
2023-06-10T17:14:55.726Z,102057.72
2023-06-10T17:17:24.615Z,102058.66
2023-06-10T17:19:53.229Z,102056.31
2023-06-10T17:22:22.148Z,102058.50
2023-06-10T17:24:50.685Z,102060.53
2023-06-10T17:27:19.251Z,102061.53
2023-06-10T17:29:49.405Z,102069.00
2023-06-10T17:32:18.492Z,102070.50
2023-06-10T17:34:47.034Z,102067.22
2023-06-10T17:37:15.720Z,102067.63
2023-06-10T17:39:44.301Z,102069.03
2023-06-10T17:42:12.960Z,102073.31
2023-06-10T17:44:41.681Z,102080.94
2023-06-10T17:47:11.823Z,102081.63
2023-06-10T17:49:40.568Z,102074.31
2023-06-10T17:52:09.731Z,102082.72
2023-06-10T17:54:38.408Z,102085.75
2023-06-10T17:57:07.518Z,102088.03
2023-06-10T17:59:36.437Z,102088.88
2023-06-10T18:02:05.521Z,102098.91
2023-06-10T18:04:35.732Z,102093.44
2023-06-10T18:07:04.432Z,102099.72
2023-06-10T18:09:33.061Z,102100.41
2023-06-10T18:12:01.577Z,102096.69
2023-06-10T18:14:30.161Z,102096.50
2023-06-10T18:16:58.612Z,102099.94
2023-06-10T18:19:27.188Z,102097.31
2023-06-10T18:21:57.216Z,102102.81
2023-06-10T18:24:26.037Z,102105.84
2023-06-10T18:26:54.552Z,102102.00
2023-06-10T18:29:23.305Z,102107.16
2023-06-10T18:31:51.848Z,102111.47
2023-06-10T18:34:20.556Z,102112.31
2023-06-10T18:36:49.183Z,102110.63
2023-06-10T18:39:19.358Z,102118.19
2023-06-10T18:41:47.991Z,102116.34
2023-06-10T18:44:16.819Z,102124.75
2023-06-10T18:46:45.477Z,102127.88
2023-06-10T18:49:14.252Z,102122.63
2023-06-10T18:51:42.924Z,102130.50
2023-06-10T18:54:11.641Z,102133.03
2023-06-10T18:56:42.320Z,102136.69
2023-06-10T18:59:11.223Z,102139.91
2023-06-10T19:01:42.634Z,102143.63
2023-06-10T19:04:11.898Z,102146.38
2023-06-10T19:06:40.416Z,102143.66
2023-06-10T19:09:09.009Z,102145.13
2023-06-10T19:11:37.789Z,102150.75
2023-06-10T19:14:08.172Z,102147.31
2023-06-10T19:16:36.931Z,102148.25
2023-06-10T19:19:05.649Z,102155.03
2023-06-10T19:21:34.211Z,102157.75
2023-06-10T19:24:03.270Z,102156.44
2023-06-10T19:26:33.229Z,102167.81
2023-06-10T19:29:01.852Z,102174.34
2023-06-10T19:31:31.991Z,102171.41
2023-06-10T19:34:00.756Z,102179.84
2023-06-10T19:36:29.491Z,102181.59
2023-06-10T19:38:58.130Z,102177.19
2023-06-10T19:41:27.312Z,102187.25
2023-06-10T19:43:55.977Z,102184.53
2023-06-10T19:46:24.645Z,102187.63
2023-06-10T19:48:54.658Z,102185.78
2023-06-10T19:51:23.412Z,102191.16
2023-06-10T19:53:52.225Z,102193.97
2023-06-10T19:56:23.302Z,102198.03
2023-06-10T19:58:52.110Z,102207.13
2023-06-10T20:01:20.825Z,102203.25
2023-06-10T20:03:49.331Z,102211.53
2023-06-10T20:06:19.932Z,102211.75
2023-06-10T20:08:48.481Z,102209.81
2023-06-10T20:11:17.804Z,102206.19
2023-06-10T20:13:46.603Z,102216.81
2023-06-10T20:16:15.224Z,102219.44
2023-06-10T20:18:43.807Z,102221.72
2023-06-10T20:21:12.786Z,102223.47
2023-06-10T20:23:42.786Z,102223.16
2023-06-10T20:26:11.341Z,102226.66
2023-06-10T20:28:40.099Z,102227.16
2023-06-10T20:31:08.770Z,102230.47
2023-06-10T20:33:37.519Z,102233.19
2023-06-10T20:36:06.461Z,102241.66
2023-06-10T20:38:35.058Z,102233.78
2023-06-10T20:41:05.338Z,102239.53
2023-06-10T20:43:33.829Z,102245.91
2023-06-10T20:46:02.603Z,102251.41
2023-06-10T20:48:31.207Z,102250.13
2023-06-10T20:50:59.784Z,102245.59
2023-06-10T20:53:28.436Z,102254.25
2023-06-10T20:55:56.991Z,102247.53
2023-06-10T20:58:27.053Z,102254.41
2023-06-10T21:00:55.832Z,102251.84
2023-06-10T21:03:24.546Z,102256.56
2023-06-10T21:05:53.099Z,102254.63
2023-06-10T21:08:22.483Z,102253.91
2023-06-10T21:10:52.541Z,102261.00
2023-06-10T21:13:21.138Z,102256.28
2023-06-10T21:15:51.418Z,102260.84
2023-06-10T21:18:20.190Z,102259.34
2023-06-10T21:20:48.831Z,102257.38
2023-06-10T21:23:17.585Z,102259.63
2023-06-10T21:25:46.290Z,102257.94
2023-06-10T21:28:15.858Z,102261.38
2023-06-10T21:30:44.514Z,102269.56
2023-06-10T21:33:14.706Z,102261.63
2023-06-10T21:35:43.390Z,102257.78
2023-06-10T21:38:12.109Z,102260.63
2023-06-10T21:40:40.768Z,102259.22
2023-06-10T21:43:09.548Z,102267.94
2023-06-10T21:45:38.254Z,102267.09
2023-06-10T21:48:08.553Z,102265.25
2023-06-10T21:50:38.819Z,102272.53
2023-06-10T21:53:07.508Z,102272.63
2023-06-10T21:55:37.270Z,102265.59
2023-06-10T21:58:05.985Z,102277.03
2023-06-10T22:00:34.714Z,102280.47
2023-06-10T22:03:03.572Z,102284.66
2023-06-10T22:05:32.431Z,102282.03
2023-06-10T22:08:03.052Z,102281.69
2023-06-10T22:10:32.136Z,102272.13
2023-06-10T22:13:00.776Z,102287.31
2023-06-10T22:15:29.347Z,102283.19
2023-06-10T22:17:58.060Z,102293.88
2023-06-10T22:20:27.225Z,102284.88
2023-06-10T22:22:56.966Z,102287.94
2023-06-10T22:25:27.149Z,102281.72
2023-06-10T22:27:55.926Z,102289.41
2023-06-10T22:30:24.526Z,102282.69
2023-06-10T22:32:53.445Z,102277.75
2023-06-10T22:35:25.066Z,102287.09
2023-06-10T22:37:53.740Z,102287.94
2023-06-10T22:40:22.403Z,102293.31
2023-06-10T22:42:52.698Z,102293.13
2023-06-10T22:45:21.430Z,102289.38
2023-06-10T22:47:50.331Z,102288.22
2023-06-10T22:50:19.331Z,102289.88
2023-06-10T22:52:48.070Z,102291.94
2023-06-10T22:55:16.782Z,102289.66
2023-06-10T22:57:45.481Z,102287.81
2023-06-10T23:00:17.399Z,102284.97
2023-06-10T23:02:46.187Z,102295.22
2023-06-10T23:05:14.807Z,102294.34
2023-06-10T23:07:43.450Z,102298.63
2023-06-10T23:10:12.382Z,102293.88
2023-06-10T23:12:41.087Z,102301.38
2023-06-10T23:15:10.878Z,102298.53
2023-06-10T23:17:46.564Z,102300.00
2023-06-10T23:20:24.243Z,102298.94
2023-06-10T23:22:53.363Z,102299.00
2023-06-10T23:25:23.520Z,102302.31
2023-06-10T23:27:52.324Z,102303.16
2023-06-10T23:30:21.125Z,102300.84
2023-06-10T23:32:51.359Z,102301.56
2023-06-10T23:35:20.983Z,102302.22
2023-06-10T23:37:49.768Z,102299.88
2023-06-10T23:40:19.789Z,102299.03
2023-06-10T23:42:48.593Z,102301.38
2023-06-10T23:45:17.502Z,102302.25
2023-06-10T23:47:46.257Z,102302.81
2023-06-10T23:50:16.506Z,102308.53
2023-06-10T23:52:45.131Z,102304.22
2023-06-10T23:55:14.107Z,102303.34
2023-06-10T23:57:42.858Z,102313.34
